Time;durP1;ratioP1;P1;durP2;ratioP2;P2;SDS_P1;SDS_P2;PMS_P1;PMS_P2;Temp;Humidity;BMP_temperature;BMP_pressure;BME280_temperature;BME280_humidity;BME280_pressure;Samples;Min_cycle;Max_cycle;Signal;HPM_P1;HPM_P2
2023/10/02 00:02:06;;;;;;;19.60;9.90;;;;;;;14.98;100.00;102050.06;6279368;22;20019;-86
2023/10/02 00:04:35;;;;;;;19.20;10.07;;;;;;;15.00;100.00;102053.06;6280813;22;20067;-86
2023/10/02 00:07:08;;;;;;;18.88;9.60;;;;;;;15.00;100.00;102048.44;6278392;22;20016;-86
2023/10/02 00:09:36;;;;;;;16.15;9.57;;;;;;;15.02;100.00;102051.44;6280843;22;20030;-86
2023/10/02 00:12:14;;;;;;;17.33;9.43;;;;;;;15.02;100.00;102050.69;6282528;22;20047;-86
2023/10/02 00:14:42;;;;;;;16.90;9.57;;;;;;;15.01;100.00;102055.31;6256638;22;20016;-87
2023/10/02 00:17:18;;;;;;;17.17;9.40;;;;;;;15.01;100.00;102046.50;6255107;22;20102;-87
2023/10/02 00:19:49;;;;;;;14.82;9.15;;;;;;;15.01;100.00;102047.25;6281245;22;20442;-87
2023/10/02 00:22:41;;;;;;;17.27;9.60;;;;;;;15.01;100.00;102036.53;6278488;22;20457;-87
2023/10/02 00:25:13;;;;;;;21.48;10.15;;;;;;;15.03;100.00;102041.47;6280825;22;20489;-87
2023/10/02 00:27:39;;;;;;;;;;;;;;;15.05;100.00;102044.44;6281395;22;20008;-86
2023/10/02 00:30:07;;;;;;;18.60;10.23;;;;;;;15.06;100.00;102037.16;6281040;22;19932;-87
2023/10/02 00:32:40;;;;;;;19.65;10.07;;;;;;;15.08;100.00;102040.13;6278885;22;20070;-89
2023/10/02 00:35:11;;;;;;;19.83;10.10;;;;;;;15.07;100.00;102044.00;6278168;22;20020;-87
2023/10/02 00:37:45;;;;;;;17.35;9.68;;;;;;;15.07;100.00;102035.97;6278861;22;20020;-87
2023/10/02 00:40:22;;;;;;;18.48;9.57;;;;;;;15.07;100.00;102038.66;6280345;22;20020;-86
2023/10/02 00:42:58;;;;;;;17.20;9.60;;;;;;;15.05;100.00;102041.00;6279101;22;20016;-88
2023/10/02 00:45:30;;;;;;;21.30;9.63;;;;;;;15.03;100.00;102030.72;6280287;22;20458;-86
2023/10/02 00:50:49;;;;;;;16.08;8.93;;;;;;;15.01;100.00;102033.84;6280075;22;20374;-86
2023/10/02 00:53:24;;;;;;;12.93;8.40;;;;;;;14.99;100.00;102038.91;6280336;22;20020;-87
2023/10/02 00:55:51;;;;;;;16.05;9.07;;;;;;;14.97;100.00;102040.53;6280662;22;20043;-87
2023/10/02 00:58:18;;;;;;;19.83;9.63;;;;;;;14.96;100.00;102044.38;6280074;22;20012;-86
2023/10/02 01:00:53;;;;;;;20.15;8.68;;;;;;;14.96;100.00;102030.97;6280496;22;20027;-87
2023/10/02 01:03:22;;;;;;;17.77;9.27;;;;;;;14.95;100.00;102040.22;6278129;22;20488;-86
2023/10/02 01:05:50;;;;;;;13.95;9.40;;;;;;;14.95;100.00;102035.59;6277791;22;20020;-86
2023/10/02 01:08:24;;;;;;;18.10;9.98;;;;;;;14.95;100.00;102030.22;6281498;22;20017;-87
2023/10/02 01:10:58;;;;;;;17.55;9.30;;;;;;;14.96;100.00;102029.06;6280206;22;20501;-87
2023/10/02 01:13:35;;;;;;;17.33;9.57;;;;;;;14.97;100.00;102027.13;6281257;22;20013;-87
2023/10/02 01:16:07;;;;;;;17.23;9.50;;;;;;;14.97;100.00;102025.19;6254549;22;20071;-86
2023/10/02 01:18:38;;;;;;;23.42;9.75;;;;;;;14.98;100.00;102029.38;6280729;22;20040;-86
2023/10/02 01:21:11;;;;;;;23.00;10.30;;;;;;;14.98;100.00;102017.88;6279727;22;20074;-85
2023/10/02 01:24:11;;;;;;;16.20;9.73;;;;;;;14.98;100.00;102021.31;6279567;22;20074;-86
2023/10/02 01:26:41;;;;;;;18.27;9.38;;;;;;;14.96;100.00;102018.31;6281463;22;20016;-86
2023/10/02 01:29:11;;;;;;;20.17;9.85;;;;;;;14.95;100.00;102013.41;6279771;22;20508;-87
2023/10/02 01:31:42;;;;;;;18.27;9.05;;;;;;;14.93;100.00;102021.88;6281492;22;20020;-86
2023/10/02 01:34:10;;;;;;;17.00;10.00;;;;;;;14.91;100.00;102015.47;6281274;22;20091;-87
2023/10/02 01:36:41;;;;;;;15.75;9.38;;;;;;;14.87;100.00;102012.91;6279805;22;20099;-87
2023/10/02 01:39:13;;;;;;;16.70;8.67;;;;;;;14.86;100.00;102013.34;6281573;22;20095;-86
2023/10/02 01:41:52;;;;;;;15.90;10.40;;;;;;;14.84;100.00;102013.78;6281316;22;20554;-87
2023/10/02 01:44:22;;;;;;;16.58;9.85;;;;;;;14.84;100.00;102016.47;6281209;22;20016;-86
2023/10/02 01:46:50;;;;;;;16.48;9.18;;;;;;;14.81;100.00;102014.66;6280342;22;20514;-87
2023/10/02 01:49:25;;;;;;;16.88;8.75;;;;;;;14.81;100.00;102017.34;6279065;22;20020;-87
2023/10/02 01:51:55;;;;;;;18.30;9.80;;;;;;;14.81;100.00;102016.59;6280243;22;20024;-88
2023/10/02 01:54:24;;;;;;;19.73;9.60;;;;;;;14.78;100.00;102015.56;6280154;22;20023;-87
2023/10/02 01:56:52;;;;;;;15.93;9.18;;;;;;;14.76;100.00;102014.50;6280951;22;20019;-86
2023/10/02 01:59:19;;;;;;;17.23;9.55;;;;;;;14.74;100.00;102012.25;6279629;22;20442;-86
2023/10/02 02:01:57;;;;;;;16.38;8.65;;;;;;;14.73;100.00;102010.75;6279951;22;20025;-88
2023/10/02 02:04:28;;;;;;;13.45;9.30;;;;;;;14.71;100.00;102005.09;6279370;22;20325;-88
2023/10/02 02:06:57;;;;;;;15.63;8.52;;;;;;;14.69;100.00;102002.09;6282069;22;20409;-88
2023/10/02 02:09:30;;;;;;;17.90;9.13;;;;;;;14.68;100.00;102000.59;6281450;22;20841;-87
2023/10/02 02:12:05;;;;;;;16.25;8.95;;;;;;;14.67;100.00;102001.78;6283125;22;20051;-87
2023/10/02 02:14:50;;;;;;;17.58;9.07;;;;;;;14.66;100.00;101998.34;6284327;22;20044;-86
2023/10/02 02:17:25;;;;;;;19.75;9.43;;;;;;;14.66;100.00;102002.97;6282834;22;20016;-87
2023/10/02 02:20:11;;;;;;;17.77;9.77;;;;;;;14.64;100.00;102002.66;6282396;22;20012;-88
2023/10/02 02:22:38;;;;;;;17.75;10.35;;;;;;;14.62;100.00;102008.44;6279609;22;20031;-88
2023/10/02 02:25:05;;;;;;;17.83;9.52;;;;;;;14.60;100.00;102013.50;6280164;22;20012;-89
2023/10/02 02:27:32;;;;;;;16.23;9.63;;;;;;;14.58;100.00;101999.78;6279636;22;20024;-88
2023/10/02 02:29:59;;;;;;;16.55;9.05;;;;;;;14.56;100.00;101999.47;6279937;22;20020;-88
2023/10/02 02:32:52;;;;;;;18.33;9.57;;;;;;;14.56;100.00;101996.78;6278589;22;20034;-88
2023/10/02 02:35:21;;;;;;;18.92;9.38;;;;;;;14.56;100.00;102004.06;6279842;22;20031;-88
2023/10/02 02:37:50;;;;;;;19.67;9.73;;;;;;;14.52;100.00;101992.72;6282152;22;20013;-89
2023/10/02 02:40:24;;;;;;;21.40;9.18;;;;;;;14.51;100.00;101991.97;6279359;22;20020;-89
2023/10/02 02:42:52;;;;;;;17.17;9.68;;;;;;;14.47;100.00;101987.94;6280149;22;20114;-89
2023/10/02 02:45:30;;;;;;;15.95;9.13;;;;;;;14.45;100.00;101990.28;6278852;22;20835;-87
2023/10/02 02:48:06;;;;;;;16.27;9.10;;;;;;;14.45;100.00;101979.56;6281739;22;20016;-88
2023/10/02 02:50:43;;;;;;;19.70;9.95;;;;;;;14.42;100.00;101975.84;6281352;22;20016;-89
2023/10/02 02:53:30;;;;;;;17.15;9.32;;;;;;;14.41;100.00;101974.34;6279213;22;20020;-89
2023/10/02 02:56:23;;;;;;;14.93;8.40;;;;;;;14.39;100.00;101973.28;6279923;22;20028;-87
2023/10/02 02:58:52;;;;;;;17.13;9.27;;;;;;;14.37;100.00;101970.28;6254225;22;20023;-88
2023/10/02 03:01:24;;;;;;;15.65;9.30;;;;;;;14.35;100.00;101973.41;6278000;22;20394;-86
2023/10/02 03:03:52;;;;;;;17.67;9.70;;;;;;;14.33;100.00;101979.19;6254142;22;20486;-88
2023/10/02 03:06:23;;;;;;;15.32;9.00;;;;;;;14.31;100.00;101976.19;6280679;22;20075;-88
2023/10/02 03:08:54;;;;;;;19.20;9.00;;;;;;;14.31;100.00;101989.59;6281293;22;20413;-89
2023/10/02 03:11:22;;;;;;;16.97;9.97;;;;;;;14.29;100.00;101983.16;6280599;22;20051;-88
2023/10/02 03:13:50;;;;;;;16.65;8.65;;;;;;;14.25;100.00;101983.28;6281453;22;20630;-89
2023/10/02 03:16:28;;;;;;;20.23;8.80;;;;;;;14.25;100.00;101980.59;6280513;22;20083;-89
2023/10/02 03:18:55;;;;;;;18.35;9.07;;;;;;;14.23;100.00;101977.63;6254488;22;20036;-89
2023/10/02 03:21:24;;;;;;;14.85;8.82;;;;;;;14.17;100.00;101979.34;6280674;22;20040;-89
2023/10/02 03:23:53;;;;;;;18.35;9.60;;;;;;;14.13;100.00;101988.69;6303596;22;20059;-89
2023/10/02 03:29:16;;;;;;;19.48;9.07;;;;;;;14.07;100.00;101979.69;6278444;22;20484;-88
2023/10/02 03:31:46;;;;;;;12.25;8.30;;;;;;;14.06;100.00;101986.97;6278764;22;20020;-86
2023/10/02 03:34:27;;;;;;;15.40;9.02;;;;;;;14.05;100.00;101982.81;6278709;22;20020;-88
2023/10/02 03:37:00;;;;;;;18.17;9.25;;;;;;;14.04;100.00;101978.63;6279566;22;20088;-87
2023/10/02 03:42:21;;;;;;;16.15;8.90;;;;;;;14.03;100.00;101977.13;6279066;22;20099;-88
2023/10/02 03:44:56;;;;;;;17.20;9.00;;;;;;;14.03;100.00;101977.88;6251930;22;20398;-88
2023/10/02 03:47:30;;;;;;;15.65;8.75;;;;;;;14.03;100.00;101982.50;6276998;22;20040;-89
2023/10/02 03:50:00;;;;;;;18.13;8.68;;;;;;;14.03;100.00;101982.50;6277828;22;20410;-89
2023/10/02 03:52:30;;;;;;;19.90;9.38;;;;;;;14.01;100.00;101977.56;6278827;22;20043;-89
2023/10/02 03:54:57;;;;;;;15.02;9.38;;;;;;;14.00;100.00;101978.00;6279765;22;20016;-89
2023/10/02 04:00:18;;;;;;;16.25;8.95;;;;;;;13.99;100.00;101985.28;6278765;22;20087;-87
2023/10/02 04:02:49;;;;;;;20.17;9.27;;;;;;;13.99;100.00;101987.97;6277656;22;20016;-87
2023/10/02 04:10:55;;;;;;;16.50;8.55;;;;;;;13.93;100.00;101972.91;6278542;22;20012;-87
2023/10/02 04:13:34;;;;;;;19.00;9.13;;;;;;;13.92;100.00;101976.75;6275818;22;20012;-87
2023/10/02 04:19:02;;;;;;;15.77;9.80;;;;;;;13.92;100.00;101974.84;6278468;22;20023;-87
2023/10/02 04:21:31;;;;;;;17.50;10.23;;;;;;;13.91;100.00;101976.00;6277699;22;20450;-88
2023/10/02 04:23:58;;;;;;;16.33;8.98;;;;;;;13.90;100.00;101973.75;6233240;22;1085914;-87
2023/10/02 04:26:28;;;;;;;16.15;8.98;;;;;;;13.88;100.00;101981.47;6280213;22;20016;-88
2023/10/02 04:29:09;;;;;;;16.88;8.57;;;;;;;13.86;100.00;101986.50;6279087;22;20848;-89
2023/10/02 04:31:36;;;;;;;14.70;8.93;;;;;;;13.85;100.00;101979.66;6278695;22;20050;-86
2023/10/02 04:34:21;;;;;;;13.52;8.30;;;;;;;13.84;100.00;101978.16;6278938;22;20071;-87
2023/10/02 04:36:48;;;;;;;14.90;8.95;;;;;;;13.83;100.00;101974.00;6280637;22;20048;-85
2023/10/02 04:42:15;;;;;;;17.60;9.15;;;;;;;13.80;100.00;101972.19;6279964;22;20012;-82
2023/10/02 04:44:47;;;;;;;14.18;8.68;;;;;;;13.78;100.00;101966.50;6280251;22;20016;-83
2023/10/02 04:47:17;;;;;;;;;;;;;;;13.77;100.00;101952.38;6280580;22;20438;-86
2023/10/02 04:53:19;;;;;;;15.93;9.25;;;;;;;13.73;100.00;101959.75;6278584;22;20027;-84
2023/10/02 04:55:41;;;;;;;16.67;8.80;;;;;;;13.73;100.00;101951.75;6279313;22;20435;-85
2023/10/02 04:58:20;;;;;;;16.60;9.43;;;;;;;13.72;100.00;101949.50;6279424;22;20091;-84
2023/10/02 05:03:37;;;;;;;18.80;9.35;;;;;;;13.68;100.00;101954.97;6280088;22;20016;-82
2023/10/02 05:06:06;;;;;;;17.55;9.68;;;;;;;13.66;100.00;101950.03;6280242;22;20012;-89
2023/10/02 05:11:07;;;;;;;17.70;9.43;;;;;;;13.65;100.00;101943.19;6279306;22;20088;-85
2023/10/02 05:13:59;;;;;;;15.30;9.57;;;;;;;13.66;100.00;101941.25;6280015;22;20012;-87
2023/10/02 05:16:32;;;;;;;18.27;10.52;;;;;;;13.68;100.00;101950.34;6279842;22;20098;-85
2023/10/02 05:19:01;;;;;;;15.85;9.18;;;;;;;13.72;100.00;101960.19;6280646;22;20047;-82
2023/10/02 05:21:45;;;;;;;15.88;9.63;;;;;;;13.72;100.00;101955.59;6277976;22;20051;-81
2023/10/02 05:24:12;;;;;;;17.67;10.05;;;;;;;13.73;100.00;101956.34;6279644;22;20083;-82
2023/10/02 05:26:44;;;;;;;20.15;10.70;;;;;;;13.73;100.00;101959.03;6279083;22;20099;-82
2023/10/02 05:29:17;;;;;;;19.98;10.15;;;;;;;13.75;100.00;101962.00;6279705;22;20585;-88
2023/10/02 05:31:45;;;;;;;17.50;9.63;;;;;;;13.74;100.00;101971.22;6279662;22;20063;-83
2023/10/02 05:34:22;;;;;;;15.40;9.88;;;;;;;13.75;100.00;101970.03;6281893;22;20402;-91
2023/10/02 05:37:11;;;;;;;20.08;10.07;;;;;;;13.75;100.00;101970.78;6281832;22;20016;-91
2023/10/02 05:39:41;;;;;;;18.15;9.57;;;;;;;13.75;100.00;101959.34;6278482;22;20454;-88
2023/10/02 05:42:16;;;;;;;19.38;10.50;;;;;;;13.75;100.00;101962.00;6278721;22;20043;-86
2023/10/02 05:44:44;;;;;;;17.02;9.80;;;;;;;13.74;100.00;101955.16;6280168;22;20016;-86
2023/10/02 05:47:15;;;;;;;20.65;10.13;;;;;;;13.72;100.00;101960.19;6279090;22;20438;-83
2023/10/02 05:49:48;;;;;;;20.00;10.60;;;;;;;13.72;100.00;101960.94;6279021;22;20416;-83
2023/10/02 05:52:20;;;;;;;18.48;10.77;;;;;;;13.74;100.00;101963.19;6279195;22;20020;-83
2023/10/02 05:54:53;;;;;;;20.27;10.83;;;;;;;13.74;100.00;101966.63;6280636;22;20020;-84
2023/10/02 05:57:20;;;;;;;17.48;10.15;;;;;;;13.75;100.00;101959.34;6280880;22;20016;-85
2023/10/02 05:59:54;;;;;;;18.30;9.82;;;;;;;13.76;100.00;101977.63;6281263;22;20043;-86
2023/10/02 06:02:23;;;;;;;18.50;10.32;;;;;;;13.79;100.00;101974.09;6280843;22;20095;-87
2023/10/02 06:04:54;;;;;;;19.45;10.88;;;;;;;13.82;100.00;101973.25;6281798;22;20047;-90
2023/10/02 06:07:40;;;;;;;20.23;11.02;;;;;;;13.86;100.00;101975.81;6255404;22;20450;-92
2023/10/02 06:10:25;;;;;;;19.95;10.32;;;;;;;13.90;100.00;101979.13;6288504;22;20011;-96
2023/10/02 06:13:03;;;;;;;18.65;10.23;;;;;;;13.94;100.00;101977.06;6284895;22;20020;-90
2023/10/02 06:15:46;;;;;;;19.35;10.70;;;;;;;14.00;100.00;101981.44;6283039;22;20059;-89
2023/10/02 06:18:27;;;;;;;23.65;11.02;;;;;;;14.07;100.00;101977.03;6281905;22;20009;-87
2023/10/02 06:21:00;;;;;;;22.75;10.68;;;;;;;14.12;100.00;101987.19;6279713;22;20032;-86
2023/10/02 06:23:29;;;;;;;21.80;9.90;;;;;;;14.19;100.00;101989.63;6279706;22;20050;-85
2023/10/02 06:25:59;;;;;;;18.65;10.52;;;;;;;14.24;100.00;101989.81;6281729;22;20498;-90
2023/10/02 06:28:27;;;;;;;16.50;10.73;;;;;;;14.29;100.00;101994.63;6280666;22;20478;-87
2023/10/02 06:30:57;;;;;;;21.40;10.77;;;;;;;14.35;100.00;101992.16;6281407;22;20000;-90
2023/10/02 06:33:24;;;;;;;21.50;10.90;;;;;;;14.39;100.00;101990.09;6281678;22;20023;-87
2023/10/02 06:36:00;;;;;;;22.58;11.23;;;;;;;14.43;100.00;102003.38;6284473;22;20017;-86
2023/10/02 06:38:29;;;;;;;20.90;11.63;;;;;;;14.48;100.00;102000.13;6284657;22;20450;-87
2023/10/02 06:40:57;;;;;;;22.17;11.35;;;;;;;14.53;100.00;101996.91;6281957;22;20458;-87
2023/10/02 06:43:32;;;;;;;22.88;11.38;;;;;;;14.61;100.00;101992.78;6281108;22;20019;-88
2023/10/02 06:46:07;;;;;;;25.05;11.68;;;;;;;14.65;100.00;101991.50;6281894;22;20016;-86
2023/10/02 06:48:35;;;;;;;18.63;11.50;;;;;;;14.71;100.00;102004.34;6282040;22;20078;-84
2023/10/02 06:51:04;;;;;;;24.05;11.75;;;;;;;14.76;100.00;102001.09;6281399;22;20440;-84
2023/10/02 06:53:31;;;;;;;24.42;12.07;;;;;;;14.85;100.00;102006.47;6281099;22;20523;-86
2023/10/02 06:56:04;;;;;;;28.25;11.02;;;;;;;14.92;100.00;102008.91;6281203;22;20980;-86
2023/10/02 06:58:45;;;;;;;21.60;10.77;;;;;;;14.97;100.00;102005.66;6281036;22;20020;-84
2023/10/02 07:01:14;;;;;;;26.33;11.70;;;;;;;15.02;100.00;102010.47;6280116;22;20020;-86
2023/10/02 07:03:50;;;;;;;20.40;10.90;;;;;;;15.08;100.00;102014.06;6281177;22;20016;-89
2023/10/02 07:06:24;;;;;;;17.67;11.20;;;;;;;15.16;100.00;102017.25;6284808;22;20416;-91
2023/10/02 07:11:42;;;;;;;18.20;10.57;;;;;;;15.31;100.00;102018.19;6285914;22;20027;-90
2023/10/02 07:14:10;;;;;;;21.45;10.90;;;;;;;15.37;100.00;102021.03;6287666;22;20087;-91
2023/10/02 07:16:37;;;;;;;22.70;11.80;;;;;;;15.42;100.00;102023.16;6284545;22;20016;-91
2023/10/02 07:19:04;;;;;;;22.13;11.32;;;;;;;15.54;100.00;102025.75;6285465;22;20016;-89
2023/10/02 07:21:31;;;;;;;18.50;10.95;;;;;;;15.62;100.00;102018.16;6283058;22;20091;-86
2023/10/02 07:24:02;;;;;;;21.65;12.15;;;;;;;15.70;100.00;102019.38;6282146;22;20817;-89
2023/10/02 07:29:17;;;;;;;22.45;11.35;;;;;;;15.87;100.00;102027.94;6280796;22;20454;-92
2023/10/02 07:31:45;;;;;;;19.33;12.20;;;;;;;15.91;100.00;102021.22;6281738;22;20027;-83
2023/10/02 07:34:15;;;;;;;23.23;11.52;;;;;;;15.96;100.00;102014.53;6280494;22;20056;-85
2023/10/02 07:36:45;;;;;;;30.00;12.18;;;;;;;16.00;100.00;102018.53;6280117;22;20043;-86
2023/10/02 07:39:35;;;;;;;20.13;10.73;;;;;;;16.05;100.00;102022.56;6280432;22;20013;-89
2023/10/02 07:42:04;;;;;;;20.30;11.75;;;;;;;16.09;100.00;102027.81;6280767;22;20027;-86
2023/10/02 07:44:37;;;;;;;23.45;12.50;;;;;;;16.11;100.00;102028.84;6278739;22;20019;-88
2023/10/02 07:47:20;;;;;;;22.77;12.07;;;;;;;16.16;100.00;102032.88;6281268;22;20414;-85
2023/10/02 07:49:51;;;;;;;20.55;11.55;;;;;;;16.19;100.00;102027.38;6281218;22;20572;-89
2023/10/02 07:52:35;;;;;;;24.88;11.48;;;;;;;16.28;100.00;102037.38;6281067;22;20414;-81
2023/10/02 07:55:10;;;;;;;19.25;11.73;;;;;;;16.43;100.00;102032.13;6281063;22;20446;-84
2023/10/02 07:57:37;;;;;;;19.00;11.13;;;;;;;16.55;100.00;102039.31;6278710;22;20417;-84
2023/10/02 08:00:06;;;;;;;22.30;11.38;;;;;;;16.63;100.00;102033.19;6280548;22;20012;-84
2023/10/02 08:02:35;;;;;;;20.98;11.02;;;;;;;16.70;100.00;102032.16;6279899;22;20026;-82
2023/10/02 08:05:04;;;;;;;20.20;11.07;;;;;;;16.78;100.00;102027.97;6280129;22;20083;-87
2023/10/02 08:07:33;;;;;;;20.85;11.82;;;;;;;16.83;100.00;102030.03;6280539;22;20446;-86
2023/10/02 08:10:14;;;;;;;21.80;11.40;;;;;;;16.86;100.00;102037.19;6280220;22;20464;-85
2023/10/02 08:12:54;;;;;;;22.67;12.00;;;;;;;16.89;100.00;102035.53;6280092;22;20075;-89
2023/10/02 08:15:26;;;;;;;18.48;10.95;;;;;;;16.92;100.00;102048.84;6278493;22;20016;-89
2023/10/02 08:20:31;;;;;;;24.08;11.80;;;;;;;16.97;100.00;102039.41;6278924;22;20355;-88
2023/10/02 08:23:01;;;;;;;21.10;11.23;;;;;;;17.04;100.00;102038.34;6281114;22;20023;-89
2023/10/02 08:25:29;;;;;;;24.88;11.07;;;;;;;17.13;100.00;102046.41;6280656;22;20016;-89
2023/10/02 08:27:55;;;;;;;22.40;11.50;;;;;;;17.19;100.00;102044.59;6281062;22;20100;-89
2023/10/02 08:30:35;;;;;;;20.10;10.93;;;;;;;17.28;100.00;102052.63;6280116;22;20027;-87
2023/10/02 08:33:08;;;;;;;18.63;10.63;;;;;;;17.32;100.00;102051.25;6280612;22;20031;-88
2023/10/02 08:35:55;;;;;;;23.58;11.20;;;;;;;17.47;100.00;102045.97;6281148;22;20019;-89
2023/10/02 08:38:21;;;;;;;21.38;11.93;;;;;;;17.57;100.00;102046.69;6280474;22;20070;-89
2023/10/02 08:40:57;;;;;;;19.58;10.55;;;;;;;17.71;100.00;102048.72;6281146;22;20016;-89
2023/10/02 08:43:28;;;;;;;23.30;11.45;;;;;;;17.84;100.00;102040.41;6280446;22;20838;-88
2023/10/02 08:45:54;;;;;;;21.58;10.90;;;;;;;17.92;100.00;102046.97;6283418;22;20059;-89
2023/10/02 08:48:22;;;;;;;23.80;11.63;;;;;;;17.97;100.00;102057.09;6280149;22;20019;-89
2023/10/02 08:50:49;;;;;;;25.92;11.73;;;;;;;18.07;100.00;102057.78;6279270;22;20016;-89
2023/10/02 08:53:20;;;;;;;22.42;11.02;;;;;;;18.17;100.00;102061.91;6280703;22;20030;-89
2023/10/02 08:58:18;;;;;;;23.08;11.40;;;;;;;18.50;100.00;102051.00;6280435;22;20078;-89
2023/10/02 09:03:42;;;;;;;22.45;11.15;;;;;;;18.90;99.40;102043.13;6280090;22;20095;-90
2023/10/02 09:11:44;;;;;;;23.65;11.40;;;;;;;19.08;97.23;102039.50;6280388;22;20434;-88
2023/10/02 09:17:07;;;;;;;18.27;11.68;;;;;;;19.16;97.55;102039.88;6280733;22;20013;-89
2023/10/02 09:19:37;;;;;;;21.55;11.32;;;;;;;19.17;95.83;102041.38;6280435;22;20016;-89
2023/10/02 09:22:07;;;;;;;18.58;11.35;;;;;;;19.16;97.55;102043.31;6280172;22;20047;-88
2023/10/02 09:24:34;;;;;;;25.07;12.30;;;;;;;19.14;95.30;102045.00;6280595;22;20071;-88
2023/10/02 09:27:25;;;;;;;20.92;11.20;;;;;;;19.18;96.55;102038.19;6280458;22;20012;-89
2023/10/02 09:30:18;;;;;;;19.67;10.43;;;;;;;19.41;96.72;102033.09;6280872;22;20492;-89
2023/10/02 09:32:49;;;;;;;21.65;11.32;;;;;;;19.54;93.99;102037.03;6281583;22;20095;-89
2023/10/02 09:35:30;;;;;;;24.90;12.30;;;;;;;19.78;93.66;102019.88;6281512;22;20074;-89
2023/10/02 09:38:17;;;;;;;18.58;11.23;;;;;;;19.90;91.56;102024.19;6281923;22;20016;-89
2023/10/02 09:43:32;;;;;;;23.60;11.73;;;;;;;20.05;90.24;102027.56;6281391;22;20782;-90
2023/10/02 09:46:06;;;;;;;22.05;11.65;;;;;;;19.96;90.72;102022.31;6281231;22;20016;-89
2023/10/02 09:51:37;;;;;;;23.17;11.98;;;;;;;20.10;91.13;102016.06;6281246;22;20023;-88
2023/10/02 09:54:13;;;;;;;20.23;12.32;;;;;;;20.11;90.13;102017.56;6281739;22;20469;-89
2023/10/02 09:56:51;;;;;;;25.02;11.55;;;;;;;20.13;89.99;102019.78;6282223;22;20066;-90
2023/10/02 09:59:23;;;;;;;22.83;11.52;;;;;;;20.15;90.07;102018.09;6282307;22;20095;-89
2023/10/02 10:02:08;;;;;;;25.52;12.38;;;;;;;20.23;89.79;102016.47;6281108;22;20505;-82
2023/10/02 10:05:39;;;;;;;22.75;12.23;;;;;;;20.33;89.97;102014.34;6280597;22;20016;-81
2023/10/02 10:07:58;;;;;;;21.67;11.65;;;;;;;20.42;89.62;102010.75;6281022;22;20012;-82
2023/10/02 10:13:33;;;;;;;21.85;11.80;;;;;;;20.58;89.10;101999.34;6278925;22;20107;-84
2023/10/02 10:16:18;;;;;;;21.83;12.05;;;;;;;20.70;87.76;101998.22;6280989;22;20012;-87
2023/10/02 10:19:22;;;;;;;21.13;11.75;;;;;;;20.84;88.46;101989.22;6281969;22;20020;-90
2023/10/02 10:22:04;;;;;;;20.02;11.50;;;;;;;20.96;87.25;101985.38;6283423;22;20020;-90
2023/10/02 10:27:40;;;;;;;20.33;10.57;;;;;;;21.00;86.31;101974.34;6280407;22;20019;-85
2023/10/02 10:30:22;;;;;;;22.15;11.38;;;;;;;20.95;87.92;101978.47;6253098;22;20126;-85
2023/10/02 10:33:01;;;;;;;18.17;10.80;;;;;;;20.85;86.90;101987.25;6281410;22;20026;-84
2023/10/02 10:35:35;;;;;;;18.90;11.32;;;;;;;20.84;86.94;101986.50;6280352;22;20458;-83
2023/10/02 10:38:25;;;;;;;19.42;10.20;;;;;;;20.89;87.30;101980.41;6280848;22;20066;-84
2023/10/02 10:41:00;;;;;;;16.30;9.80;;;;;;;20.83;87.13;101979.63;6280917;22;20061;-82
2023/10/02 10:43:55;;;;;;;22.85;9.95;;;;;;;20.87;86.84;101982.09;6280574;22;20070;-86
2023/10/02 10:46:31;;;;;;;18.20;9.30;;;;;;;20.90;87.71;101990.00;6280747;22;20043;-82
2023/10/02 10:49:10;;;;;;;20.85;10.77;;;;;;;21.00;86.43;101987.88;6280562;22;20447;-81
2023/10/02 10:51:38;;;;;;;14.77;9.73;;;;;;;21.12;87.07;101985.97;6280459;22;20454;-82
2023/10/02 10:54:12;;;;;;;20.23;10.10;;;;;;;21.31;85.39;101981.66;6279349;22;20083;-83
2023/10/02 10:56:45;;;;;;;20.23;9.85;;;;;;;21.45;85.22;101980.03;6279124;22;20020;-82
2023/10/02 10:59:22;;;;;;;19.02;10.40;;;;;;;21.53;86.42;101972.94;6280058;22;20099;-81
2023/10/02 11:04:39;;;;;;;18.05;10.05;;;;;;;21.70;85.31;101976.44;6281009;22;20022;-81
2023/10/02 11:07:19;;;;;;;;;;;;;;;21.80;85.86;101972.28;6281108;22;20417;-80
2023/10/02 11:12:57;;;;;;;18.25;8.82;;;;;;;21.83;82.80;101975.97;6280732;22;20095;-80
2023/10/02 11:15:45;;;;;;;12.85;8.57;;;;;;;21.80;82.59;101988.53;6278455;22;20021;-80
2023/10/02 11:18:21;;;;;;;15.05;9.15;;;;;;;21.76;82.94;101973.75;6280494;22;20012;-80
2023/10/02 11:20:54;;;;;;;16.67;9.15;;;;;;;21.86;83.43;101975.00;6280960;22;20043;-81
2023/10/02 11:23:38;;;;;;;15.75;8.30;;;;;;;21.92;84.43;101978.47;6279350;22;20016;-82
2023/10/02 11:26:13;;;;;;;18.52;9.15;;;;;;;21.97;82.98;101980.47;6280952;22;20012;-84
2023/10/02 11:28:42;;;;;;;17.45;9.82;;;;;;;22.03;82.35;101972.34;6280027;22;20522;-83
2023/10/02 11:31:29;;;;;;;17.20;9.43;;;;;;;22.07;82.27;101978.28;6280674;22;20039;-79
2023/10/02 11:34:00;;;;;;;18.95;9.80;;;;;;;22.05;82.20;101976.06;6280794;22;20024;-80
2023/10/02 11:36:53;;;;;;;19.92;10.30;;;;;;;22.10;82.31;101974.59;6280827;22;20023;-80
2023/10/02 11:39:26;;;;;;;16.38;9.05;;;;;;;22.10;82.91;101966.44;6278188;22;20492;-80
2023/10/02 11:41:53;;;;;;;15.23;8.90;;;;;;;22.18;82.91;101973.63;6279744;22;20023;-80
2023/10/02 11:44:19;;;;;;;14.32;8.95;;;;;;;22.23;81.94;101966.72;6279713;22;20020;-82
2023/10/02 11:46:48;;;;;;;19.50;9.10;;;;;;;22.23;81.25;101964.00;6280400;22;20016;-80
2023/10/02 11:49:15;;;;;;;14.77;9.02;;;;;;;22.15;81.65;101950.19;6280137;22;20012;-80
2023/10/02 11:51:44;;;;;;;18.13;9.00;;;;;;;22.16;82.25;101953.66;6279447;22;20505;-80
2023/10/02 11:54:13;;;;;;;12.85;8.00;;;;;;;22.17;82.45;101957.84;6279727;22;20020;-80
2023/10/02 11:56:42;;;;;;;14.10;8.00;;;;;;;22.22;82.86;101949.72;6279407;22;20016;-78
2023/10/02 11:59:14;;;;;;;14.05;9.15;;;;;;;22.34;81.79;101955.16;6280082;22;20050;-80
2023/10/02 12:01:43;;;;;;;13.95;8.77;;;;;;;22.45;81.28;101944.28;6280550;22;20427;-80
2023/10/02 12:04:10;;;;;;;16.20;7.68;;;;;;;22.53;81.95;101948.00;6280102;22;20407;-80
2023/10/02 12:06:38;;;;;;;18.73;8.82;;;;;;;22.61;81.06;101935.41;6278088;22;20103;-79
2023/10/02 12:09:05;;;;;;;15.90;8.93;;;;;;;22.78;80.32;101928.03;6280373;22;20051;-80
2023/10/02 12:11:33;;;;;;;14.68;8.68;;;;;;;22.86;79.38;101923.53;6277508;22;20100;-79
2023/10/02 12:14:02;;;;;;;19.30;8.70;;;;;;;22.83;79.31;101921.09;6278244;22;20470;-79
2023/10/02 12:16:30;;;;;;;20.75;9.15;;;;;;;22.75;79.42;101922.81;6279888;22;20091;-80
2023/10/02 12:18:57;;;;;;;16.42;9.80;;;;;;;22.58;78.53;101923.56;6280535;22;20016;-80
2023/10/02 12:21:24;;;;;;;16.48;8.95;;;;;;;22.53;79.71;101920.84;6279295;22;20016;-81
2023/10/02 12:23:51;;;;;;;20.88;9.15;;;;;;;22.52;79.87;101928.25;6280242;22;20096;-81
2023/10/02 12:26:21;;;;;;;14.98;9.18;;;;;;;22.57;80.86;101924.06;6279607;22;20046;-81
2023/10/02 12:28:49;;;;;;;17.05;9.55;;;;;;;22.53;79.27;101926.28;6280953;22;20023;-86
2023/10/02 12:31:19;;;;;;;13.80;8.13;;;;;;;22.51;79.89;101915.19;6280897;22;20047;-83
2023/10/02 12:33:48;;;;;;;16.13;9.15;;;;;;;22.54;80.46;101919.63;6282701;22;20573;-80
2023/10/02 12:36:22;;;;;;;20.05;10.48;;;;;;;22.58;79.68;101907.28;6276293;22;20021;-82
2023/10/02 12:38:50;;;;;;;18.95;9.90;;;;;;;22.57;79.54;101902.34;6280102;22;20022;-80
2023/10/02 12:41:21;;;;;;;22.50;9.35;;;;;;;22.63;78.63;101903.09;6279234;22;20012;-81
2023/10/02 12:43:59;;;;;;;17.90;9.15;;;;;;;22.59;79.41;101895.19;6278454;22;20020;-82
2023/10/02 12:46:27;;;;;;;21.27;9.88;;;;;;;22.58;79.95;101893.72;6279041;22;20016;-82
2023/10/02 12:48:57;;;;;;;15.38;9.57;;;;;;;22.62;79.93;101888.78;6279994;22;20016;-80